createdAt,value
2018-12-31T00:05:03.813Z,16.13
2018-12-31T00:10:07.874Z,15.03
2018-12-31T00:15:11.934Z,16.20
2018-12-31T00:20:16.271Z,16.47
2018-12-31T00:25:20.897Z,16.60
2018-12-31T00:30:25.289Z,17.63
2018-12-31T00:35:29.336Z,15.77
2018-12-31T00:40:33.679Z,15.60
2018-12-31T00:45:37.781Z,14.20
2018-12-31T00:50:41.903Z,14.40
2018-12-31T00:55:46.305Z,13.53
2018-12-31T01:00:50.394Z,13.50
2018-12-31T01:05:54.690Z,13.40
2018-12-31T01:10:58.724Z,14.03
2018-12-31T01:16:02.801Z,13.57
2018-12-31T01:21:07.125Z,14.70
2018-12-31T01:26:11.194Z,13.90
2018-12-31T01:31:15.707Z,14.77
2018-12-31T01:36:20.043Z,14.47
2018-12-31T01:41:24.255Z,15.23
2018-12-31T01:46:28.548Z,15.00
2018-12-31T01:51:32.893Z,16.70
2018-12-31T01:56:37.090Z,15.23
2018-12-31T02:01:41.440Z,16.23
2018-12-31T02:06:45.805Z,15.03
2018-12-31T02:11:50.912Z,15.30
2018-12-31T02:16:55.378Z,15.57
2018-12-31T02:22:00.138Z,15.60
2018-12-31T02:27:04.515Z,16.85
2018-12-31T02:32:08.966Z,14.23
2018-12-31T02:37:13.373Z,14.77
2018-12-31T02:42:17.747Z,13.63
2018-12-31T02:47:21.963Z,14.70
2018-12-31T02:52:26.293Z,14.33
2018-12-31T02:57:30.597Z,14.87
2018-12-31T03:02:34.922Z,15.10
2018-12-31T03:07:39.340Z,13.50
2018-12-31T03:12:43.961Z,14.00
2018-12-31T03:17:48.331Z,13.80
2018-12-31T03:22:52.708Z,14.23
2018-12-31T03:27:57.094Z,14.17
2018-12-31T03:33:01.941Z,12.60
2018-12-31T03:38:06.036Z,12.07
2018-12-31T03:43:10.362Z,14.30
2018-12-31T03:48:15.081Z,12.07
2018-12-31T03:53:19.729Z,12.27
2018-12-31T03:58:23.806Z,12.90
2018-12-31T04:03:27.850Z,13.03
2018-12-31T04:08:31.903Z,11.93
2018-12-31T04:13:36.199Z,11.73
2018-12-31T04:18:40.526Z,11.47
2018-12-31T04:23:46.395Z,11.53
2018-12-31T04:28:50.774Z,11.50
2018-12-31T04:33:55.161Z,10.80
2018-12-31T04:39:00.982Z,11.00
2018-12-31T04:44:05.340Z,11.17
2018-12-31T04:49:09.939Z,11.33
2018-12-31T04:54:14.092Z,11.13
2018-12-31T04:59:18.428Z,11.07
2018-12-31T05:04:22.806Z,10.17
2018-12-31T05:09:27.186Z,10.53
2018-12-31T05:14:31.564Z,10.37
2018-12-31T05:19:35.663Z,11.47
2018-12-31T05:24:40.235Z,13.20
2018-12-31T05:29:44.636Z,14.33
2018-12-31T05:34:49.002Z,16.90
2018-12-31T05:39:53.085Z,16.27
2018-12-31T05:44:57.440Z,20.33
2018-12-31T05:50:02.129Z,19.20
2018-12-31T05:55:06.501Z,20.15
2018-12-31T06:00:10.869Z,20.13
2018-12-31T06:05:15.195Z,21.33
2018-12-31T06:10:19.778Z,23.13
2018-12-31T06:15:24.213Z,23.13
2018-12-31T06:20:28.503Z,24.30
2018-12-31T06:25:33.085Z,23.17
2018-12-31T06:30:37.698Z,23.30
2018-12-31T06:35:42.322Z,22.67
2018-12-31T06:40:46.414Z,23.13
2018-12-31T06:45:50.989Z,19.67
2018-12-31T06:50:55.334Z,23.27
2018-12-31T06:55:59.933Z,23.77
2018-12-31T07:01:04.550Z,22.37
2018-12-31T07:06:08.906Z,20.60
2018-12-31T07:11:15.020Z,21.53
2018-12-31T07:16:19.406Z,19.63
2018-12-31T07:21:23.491Z,19.47
2018-12-31T07:26:27.574Z,21.47
2018-12-31T07:31:31.632Z,19.37
2018-12-31T07:36:35.984Z,18.83
2018-12-31T07:41:41.377Z,21.83
2018-12-31T07:46:46.876Z,21.93
2018-12-31T07:51:50.943Z,20.87
2018-12-31T07:56:55.238Z,22.03
2018-12-31T08:01:59.301Z,23.65
2018-12-31T08:07:03.874Z,26.07
2018-12-31T08:12:08.198Z,28.53
2018-12-31T08:17:12.543Z,31.40
2018-12-31T08:22:16.919Z,34.07
2018-12-31T08:27:21.007Z,40.50
2018-12-31T08:32:25.627Z,41.60
2018-12-31T08:37:30.021Z,37.87
2018-12-31T08:42:34.402Z,41.27
2018-12-31T08:47:39.141Z,49.67
2018-12-31T08:52:43.237Z,43.73
2018-12-31T08:57:47.890Z,49.03
2018-12-31T09:02:52.336Z,58.47
2018-12-31T09:07:56.677Z,45.30
2018-12-31T09:13:01.279Z,42.37
2018-12-31T09:18:05.662Z,40.87
2018-12-31T09:23:09.770Z,44.97
2018-12-31T09:28:14.257Z,51.53
2018-12-31T09:33:18.640Z,46.87
2018-12-31T09:38:22.736Z,50.63
2018-12-31T09:43:27.090Z,52.93
2018-12-31T09:48:31.778Z,51.47
2018-12-31T09:53:36.111Z,59.00
2018-12-31T09:58:40.514Z,60.70
2018-12-31T10:03:44.903Z,63.45
2018-12-31T10:08:49.638Z,57.53
2018-12-31T10:13:54.022Z,54.33
2018-12-31T10:18:58.106Z,53.53
2018-12-31T10:24:02.150Z,53.23
2018-12-31T10:29:06.491Z,56.57
2018-12-31T10:34:11.212Z,57.60
2018-12-31T10:39:15.878Z,59.03
2018-12-31T10:44:20.254Z,65.43
2018-12-31T10:49:24.721Z,62.27
2018-12-31T10:54:30.347Z,60.73
2018-12-31T10:59:34.694Z,62.53
2018-12-31T11:04:38.795Z,61.73
2018-12-31T11:09:43.140Z,64.87
2018-12-31T11:14:47.243Z,64.00
2018-12-31T11:19:51.591Z,67.73
2018-12-31T11:24:57.138Z,62.25
2018-12-31T11:30:01.526Z,71.60
2018-12-31T11:35:05.682Z,60.73
2018-12-31T11:40:10.294Z,59.63
2018-12-31T11:45:14.685Z,58.63
2018-12-31T11:50:19.086Z,60.70
2018-12-31T11:55:23.784Z,58.33
2018-12-31T12:00:27.875Z,63.10
2018-12-31T12:05:32.832Z,64.60
2018-12-31T12:10:37.175Z,58.90
2018-12-31T12:15:41.270Z,53.90
2018-12-31T12:20:46.782Z,52.03
2018-12-31T12:25:50.874Z,59.43
2018-12-31T12:30:55.462Z,54.30
2018-12-31T12:35:59.554Z,49.60
2018-12-31T12:41:03.603Z,61.10
2018-12-31T12:46:07.653Z,53.63
2018-12-31T12:51:12.042Z,55.20
2018-12-31T12:56:16.094Z,46.83
2018-12-31T13:01:20.142Z,53.23
2018-12-31T13:06:24.557Z,55.67
2018-12-31T13:11:28.658Z,54.87
2018-12-31T13:16:33.259Z,63.40
2018-12-31T13:21:37.895Z,65.43
2018-12-31T13:26:43.758Z,68.67
2018-12-31T13:31:47.753Z,61.70
2018-12-31T13:36:52.450Z,55.07
2018-12-31T13:41:56.557Z,68.73
2018-12-31T13:47:00.863Z,64.90
2018-12-31T13:52:04.910Z,63.40
2018-12-31T13:57:09.598Z,68.53
2018-12-31T14:02:13.679Z,65.50
2018-12-31T14:07:18.411Z,71.37
2018-12-31T14:12:22.746Z,67.50
2018-12-31T14:17:27.110Z,67.90
2018-12-31T14:22:31.203Z,63.87
2018-12-31T14:27:35.554Z,72.70
2018-12-31T14:32:39.944Z,64.70
2018-12-31T14:37:44.046Z,70.00
2018-12-31T14:42:48.234Z,69.03
2018-12-31T14:47:52.580Z,62.70
2018-12-31T14:52:56.695Z,61.83
2018-12-31T14:58:00.750Z,57.03
2018-12-31T15:03:05.454Z,67.23
2018-12-31T15:08:10.096Z,62.27
2018-12-31T15:13:14.272Z,60.53
2018-12-31T15:18:18.611Z,63.13
2018-12-31T15:23:23.694Z,68.33
2018-12-31T15:28:27.894Z,62.03
2018-12-31T15:33:32.562Z,63.20
2018-12-31T15:38:37.237Z,54.90
2018-12-31T15:43:41.901Z,68.23
2018-12-31T15:48:46.285Z,56.00
2018-12-31T15:53:51.273Z,60.13
2018-12-31T15:58:55.362Z,57.13
2018-12-31T16:03:59.887Z,57.97
2018-12-31T16:09:06.445Z,60.13
2018-12-31T16:14:10.814Z,63.15
2018-12-31T16:19:15.527Z,62.33
2018-12-31T16:24:20.489Z,58.10
2018-12-31T16:29:24.858Z,68.10
2018-12-31T16:34:29.643Z,66.73
2018-12-31T16:39:34.046Z,61.20
2018-12-31T16:44:38.392Z,59.87
2018-12-31T16:49:42.500Z,58.47
2018-12-31T16:54:47.071Z,58.87
2018-12-31T16:59:51.449Z,65.47
2018-12-31T17:04:56.696Z,71.83
2018-12-31T17:10:01.344Z,62.87
2018-12-31T17:15:06.620Z,66.55
2018-12-31T17:20:11.034Z,62.77
2018-12-31T17:25:15.416Z,73.73
2018-12-31T17:30:19.517Z,71.93
2018-12-31T17:35:23.627Z,84.83
2018-12-31T17:40:27.974Z,79.17
2018-12-31T17:45:32.345Z,75.03
2018-12-31T17:50:36.755Z,69.57
2018-12-31T17:55:41.421Z,76.00
2018-12-31T18:00:46.915Z,72.33
2018-12-31T18:05:51.259Z,70.03
2018-12-31T18:10:55.594Z,75.90
2018-12-31T18:15:59.940Z,76.07
2018-12-31T18:21:04.327Z,70.77
2018-12-31T18:26:09.060Z,78.50
2018-12-31T18:31:13.147Z,73.57
2018-12-31T18:36:17.556Z,86.70
2018-12-31T18:41:21.661Z,82.33
2018-12-31T18:46:26.010Z,91.43
2018-12-31T18:51:30.141Z,86.23
2018-12-31T18:56:34.483Z,83.03
2018-12-31T19:01:38.599Z,77.27
2018-12-31T19:06:43.059Z,80.83
2018-12-31T19:11:47.117Z,66.87
2018-12-31T19:16:51.466Z,72.83
2018-12-31T19:21:55.739Z,69.70
2018-12-31T19:27:00.036Z,71.87
2018-12-31T19:32:04.762Z,72.03
2018-12-31T19:37:08.850Z,72.73
2018-12-31T19:42:13.511Z,69.37
2018-12-31T19:47:18.157Z,73.97
2018-12-31T19:52:22.525Z,85.13
2018-12-31T19:57:26.965Z,82.40
2018-12-31T20:02:31.310Z,87.83
2018-12-31T20:07:35.659Z,84.80
2018-12-31T20:12:40.250Z,82.78
2018-12-31T20:17:44.353Z,95.13
2018-12-31T20:22:48.408Z,97.80
2018-12-31T20:27:52.455Z,89.27
2018-12-31T20:32:57.088Z,169.47
2018-12-31T20:38:01.178Z,96.90
2018-12-31T20:43:05.475Z,87.30
2018-12-31T20:48:09.523Z,82.50
2018-12-31T20:53:13.862Z,82.67
2018-12-31T20:58:17.917Z,81.30
2018-12-31T21:03:22.066Z,84.97
2018-12-31T21:08:26.405Z,83.33
2018-12-31T21:13:30.745Z,74.50
2018-12-31T21:18:35.148Z,85.27
2018-12-31T21:23:41.253Z,84.70
2018-12-31T21:28:45.780Z,88.60
2018-12-31T21:33:50.174Z,97.63
2018-12-31T21:38:54.258Z,89.20
2018-12-31T21:43:58.848Z,88.30
2018-12-31T21:49:03.566Z,89.43
2018-12-31T21:54:07.945Z,85.10
2018-12-31T21:59:12.407Z,79.30
2018-12-31T22:04:16.446Z,82.73
2018-12-31T22:09:20.496Z,85.07
2018-12-31T22:14:24.781Z,86.13
2018-12-31T22:19:30.270Z,84.80
2018-12-31T22:24:34.600Z,83.43
2018-12-31T22:29:39.023Z,85.27
2018-12-31T22:34:43.735Z,71.73
2018-12-31T22:39:48.083Z,75.27
2018-12-31T22:44:53.108Z,70.80
2018-12-31T22:49:57.502Z,68.97
2018-12-31T22:55:02.181Z,88.13
2018-12-31T23:00:09.553Z,210.57
2018-12-31T23:05:14.041Z,161.87
2018-12-31T23:10:18.430Z,344.07
2018-12-31T23:15:23.173Z,332.00
2018-12-31T23:20:27.253Z,540.37
2018-12-31T23:25:31.888Z,714.80
2018-12-31T23:30:35.981Z,772.13
2018-12-31T23:35:40.032Z,664.50
2018-12-31T23:40:44.102Z,545.23
2018-12-31T23:45:48.261Z,457.40
2018-12-31T23:50:52.344Z,403.00
2018-12-31T23:55:56.651Z,344.40
